Time;durP1;ratioP1;P1;durP2;ratioP2;P2;SDS_P1;SDS_P2;PMS_P1;PMS_P2;Temp;Humidity;BMP_temperature;BMP_pressure;BME280_temperature;BME280_humidity;BME280_pressure;Samples;Min_cycle;Max_cycle;Signal;HPM_P1;HPM_P2
2021/06/24 00:01:42;;;;;;;5.87;5.03;;;17.70;99.90;;;;;;6128604;23;20429;-91
2021/06/24 00:04:10;;;;;;;5.73;5.10;;;17.80;99.90;;;;;;6129821;23;20791;-91
2021/06/24 00:06:37;;;;;;;4.53;4.13;;;17.80;99.90;;;;;;6128589;23;20409;-91
2021/06/24 00:09:04;;;;;;;5.20;4.80;;;17.80;99.90;;;;;;6128429;23;20416;-90
2021/06/24 00:11:31;;;;;;;4.97;4.33;;;17.80;99.90;;;;;;6130841;23;20387;-90
2021/06/24 00:13:58;;;;;;;5.30;4.80;;;17.70;99.90;;;;;;6128047;23;20935;-91
2021/06/24 00:16:26;;;;;;;5.43;4.87;;;17.70;99.90;;;;;;6128342;23;20920;-90
2021/06/24 00:18:53;;;;;;;6.73;5.13;;;17.60;99.90;;;;;;6128633;23;20404;-91
2021/06/24 00:21:21;;;;;;;5.50;4.90;;;17.70;99.90;;;;;;6129726;23;20407;-91
2021/06/24 00:23:48;;;;;;;6.27;5.70;;;17.60;99.90;;;;;;6148928;23;20459;-90
2021/06/24 00:26:15;;;;;;;5.20;4.70;;;17.60;99.90;;;;;;6133169;23;20463;-90
2021/06/24 00:28:42;;;;;;;8.20;5.80;;;17.60;99.90;;;;;;6131190;23;20919;-91
2021/06/24 00:31:12;;;;;;;6.50;5.77;;;17.60;99.90;;;;;;6128190;23;20414;-91
2021/06/24 00:33:38;;;;;;;7.17;5.63;;;17.60;99.90;;;;;;6143304;23;20395;-89
2021/06/24 00:36:05;;;;;;;7.53;4.77;;;17.60;99.90;;;;;;6155108;23;20390;-88
2021/06/24 00:38:33;;;;;;;5.93;5.00;;;17.60;99.90;;;;;;6153816;23;20840;-90
2021/06/24 00:41:01;;;;;;;4.80;4.20;;;17.70;99.90;;;;;;6146912;23;20399;-88
2021/06/24 00:43:28;;;;;;;5.30;4.90;;;17.70;99.90;;;;;;6154867;23;20432;-88
2021/06/24 00:45:55;;;;;;;5.00;4.60;;;17.60;99.90;;;;;;6143883;23;20438;-90
2021/06/24 00:48:22;;;;;;;6.27;5.00;;;17.50;99.90;;;;;;6132191;23;20458;-90
2021/06/24 00:50:49;;;;;;;5.20;4.70;;;17.50;99.90;;;;;;6146990;23;20392;-88
2021/06/24 00:53:16;;;;;;;5.47;4.40;;;17.60;99.90;;;;;;6141688;23;20921;-90
2021/06/24 00:55:46;;;;;;;4.10;3.70;;;17.60;99.90;;;;;;6128804;23;20426;-90
2021/06/24 00:58:14;;;;;;;4.27;3.83;;;17.60;99.90;;;;;;6127948;23;20505;-90
2021/06/24 01:00:43;;;;;;;4.73;4.33;;;17.60;99.90;;;;;;6128040;23;20420;-90
2021/06/24 01:03:11;;;;;;;6.20;4.73;;;17.60;99.90;;;;;;6128274;23;20430;-90
2021/06/24 01:05:39;;;;;;;6.07;4.70;;;17.50;99.90;;;;;;6127355;23;20439;-91
2021/06/24 01:08:07;;;;;;;5.53;4.80;;;17.30;99.90;;;;;;6127962;23;20412;-90
2021/06/24 01:10:34;;;;;;;6.23;4.87;;;17.40;99.90;;;;;;6127408;23;20403;-91
2021/06/24 01:13:02;;;;;;;6.90;5.20;;;17.40;99.90;;;;;;6128716;23;20913;-90
2021/06/24 01:15:29;;;;;;;5.27;4.87;;;17.40;99.90;;;;;;6140120;23;20419;-89
2021/06/24 01:17:57;;;;;;;7.60;5.50;;;17.40;99.90;;;;;;6153405;23;20407;-89
2021/06/24 01:20:25;;;;;;;6.50;5.93;;;17.50;99.90;;;;;;6141477;23;20400;-90
2021/06/24 01:22:52;;;;;;;6.67;6.07;;;17.60;99.90;;;;;;6127666;23;20398;-90
2021/06/24 01:25:21;;;;;;;6.47;5.83;;;17.60;99.90;;;;;;6126946;23;20444;-90
2021/06/24 01:27:49;;;;;;;5.90;5.40;;;17.70;99.90;;;;;;6127484;23;20399;-90
2021/06/24 01:30:16;;;;;;;6.27;5.73;;;17.70;99.90;;;;;;6127864;23;20413;-90
2021/06/24 01:32:43;;;;;;;6.40;5.80;;;17.70;99.90;;;;;;6127765;23;20411;-91
2021/06/24 01:35:11;;;;;;;7.80;5.80;;;17.80;99.90;;;;;;6126632;23;20431;-90
2021/06/24 01:37:37;;;;;;;7.30;6.70;;;17.80;99.90;;;;;;6127097;23;20911;-91
2021/06/24 01:40:06;;;;;;;6.47;5.97;;;17.80;99.90;;;;;;6127719;23;20895;-90
2021/06/24 01:42:34;;;;;;;6.00;5.50;;;17.80;99.90;;;;;;6137050;23;20410;-90
2021/06/24 01:45:01;;;;;;;6.23;5.73;;;17.90;99.90;;;;;;6153913;23;20531;-91
2021/06/24 01:47:28;;;;;;;6.93;6.33;;;17.90;99.90;;;;;;6129719;23;20400;-88
2021/06/24 01:49:55;;;;;;;6.67;6.17;;;17.90;99.90;;;;;;6150480;23;20413;-89
2021/06/24 01:52:21;;;;;;;6.33;5.73;;;17.90;99.90;;;;;;6146048;23;20881;-89
2021/06/24 01:54:48;;;;;;;6.50;6.00;;;17.90;99.90;;;;;;6126357;23;20419;-89
2021/06/24 01:57:16;;;;;;;6.53;6.03;;;17.90;99.90;;;;;;6126570;23;20412;-88
2021/06/24 01:59:44;;;;;;;7.30;6.70;;;17.90;99.90;;;;;;6126256;23;20910;-89
2021/06/24 02:02:11;;;;;;;7.17;6.57;;;17.90;99.90;;;;;;6126584;23;20419;-89
2021/06/24 02:04:38;;;;;;;7.33;6.63;;;17.80;99.90;;;;;;6126070;23;20791;-89
2021/06/24 02:07:05;;;;;;;7.60;7.00;;;17.80;99.90;;;;;;6136434;23;20395;-90
2021/06/24 02:09:31;;;;;;;6.40;5.90;;;17.80;99.90;;;;;;6154066;23;20479;-91
2021/06/24 02:11:59;;;;;;;7.10;6.40;;;17.80;99.90;;;;;;6152627;23;20389;-90
2021/06/24 02:14:26;;;;;;;6.60;6.07;;;17.80;99.90;;;;;;6152828;23;20515;-89
2021/06/24 02:16:55;;;;;;;6.60;6.07;;;17.80;99.90;;;;;;6152508;23;20404;-90
2021/06/24 02:19:21;;;;;;;8.07;7.23;;;17.80;99.90;;;;;;6137117;23;20431;-89
2021/06/24 02:21:48;;;;;;;7.50;6.80;;;17.80;99.90;;;;;;6126597;23;20419;-89
2021/06/24 02:24:15;;;;;;;6.00;5.60;;;17.90;99.90;;;;;;6125780;23;20449;-89
2021/06/24 02:26:41;;;;;;;7.97;7.20;;;17.90;99.90;;;;;;6126514;23;20393;-88
2021/06/24 02:29:08;;;;;;;7.50;6.80;;;17.90;99.90;;;;;;6127225;23;20421;-89
2021/06/24 02:31:34;;;;;;;7.70;7.10;;;17.90;99.90;;;;;;6129187;23;20468;-89
2021/06/24 02:34:05;;;;;;;7.47;6.87;;;17.90;99.90;;;;;;6125549;23;20424;-88
2021/06/24 02:36:35;;;;;;;8.87;7.97;;;17.90;99.90;;;;;;6125802;23;20882;-89
2021/06/24 02:39:02;;;;;;;8.23;7.53;;;17.90;99.90;;;;;;6125969;23;20416;-89
2021/06/24 02:41:33;;;;;;;8.73;7.83;;;17.80;99.90;;;;;;6125821;23;20420;-88
2021/06/24 02:44:00;;;;;;;8.60;7.80;;;17.80;99.90;;;;;;6126170;23;20454;-89
2021/06/24 02:46:28;;;;;;;9.67;8.80;;;17.80;99.90;;;;;;6126164;23;20419;-89
2021/06/24 02:48:55;;;;;;;9.83;8.43;;;17.70;99.90;;;;;;6138245;23;20786;-89
2021/06/24 02:51:27;;;;;;;10.30;9.40;;;17.70;99.90;;;;;;6128787;23;20772;-89
2021/06/24 02:53:53;;;;;;;10.53;9.73;;;17.70;99.90;;;;;;6128839;23;20417;-89
2021/06/24 02:56:22;;;;;;;10.50;9.60;;;17.80;99.90;;;;;;6134904;23;20494;-87
2021/06/24 02:58:50;;;;;;;10.73;9.73;;;17.80;99.90;;;;;;6138165;23;20413;-90
2021/06/24 03:01:16;;;;;;;12.90;11.70;;;17.80;99.90;;;;;;6126291;23;20825;-90
2021/06/24 03:03:46;;;;;;;12.70;11.70;;;17.70;99.90;;;;;;6135629;23;20416;-91
2021/06/24 03:06:12;;;;;;;12.70;11.50;;;17.70;99.90;;;;;;6147281;23;20380;-90
2021/06/24 03:08:40;;;;;;;14.37;12.90;;;17.70;99.90;;;;;;6142445;23;20429;-90
2021/06/24 03:11:07;;;;;;;13.53;12.23;;;17.70;99.90;;;;;;6126557;23;20400;-90
2021/06/24 03:13:34;;;;;;;11.17;10.17;;;17.70;99.90;;;;;;6125444;23;20416;-91
2021/06/24 03:16:02;;;;;;;12.07;10.73;;;17.70;99.90;;;;;;6124681;23;20442;-91
2021/06/24 03:18:29;;;;;;;11.63;9.23;;;17.60;99.90;;;;;;6125508;23;20415;-91
2021/06/24 03:20:56;;;;;;;9.27;7.70;;;17.60;99.90;;;;;;6125326;23;20400;-91
2021/06/24 03:23:24;;;;;;;6.07;5.47;;;17.60;99.90;;;;;;6125045;23;20404;-90
2021/06/24 03:25:55;;;;;;;6.53;5.60;;;17.60;99.90;;;;;;6125806;23;20482;-91
2021/06/24 03:28:23;;;;;;;5.37;4.57;;;17.60;99.90;;;;;;6126250;23;20396;-90
2021/06/24 03:30:50;;;;;;;6.60;4.97;;;17.50;99.90;;;;;;6133127;23;20412;-91
2021/06/24 03:33:17;;;;;;;5.80;5.30;;;17.40;99.90;;;;;;6144825;23;20404;-91
2021/06/24 03:35:47;;;;;;;6.50;5.50;;;17.40;99.90;;;;;;6148565;23;20383;-89
2021/06/24 03:38:16;;;;;;;5.50;5.00;;;17.40;99.90;;;;;;6129630;23;20443;-90
2021/06/24 03:40:46;;;;;;;8.67;6.63;;;17.40;99.90;;;;;;6127448;23;20390;-90
2021/06/24 03:43:16;;;;;;;6.13;5.60;;;17.50;99.90;;;;;;6128554;23;20430;-90
2021/06/24 03:45:45;;;;;;;8.17;6.87;;;17.60;99.90;;;;;;6128025;23;20464;-90
2021/06/24 03:48:15;;;;;;;7.30;5.70;;;17.50;99.90;;;;;;6128313;23;20423;-90
2021/06/24 03:50:42;;;;;;;5.67;4.30;;;17.60;99.90;;;;;;6125997;23;20914;-90
2021/06/24 03:53:13;;;;;;;4.43;4.03;;;17.60;99.90;;;;;;6130762;23;20420;-90
2021/06/24 03:55:43;;;;;;;3.13;2.90;;;17.60;99.90;;;;;;6139125;23;20427;-90
2021/06/24 03:58:17;;;;;;;3.90;3.27;;;17.60;99.90;;;;;;6152510;23;20411;-90
2021/06/24 04:00:47;;;;;;;3.80;3.37;;;17.60;99.90;;;;;;6132845;23;20848;-91
2021/06/24 04:03:15;;;;;;;4.27;3.87;;;17.60;99.90;;;;;;6126885;23;20797;-90
2021/06/24 04:05:44;;;;;;;3.97;3.57;;;17.60;99.90;;;;;;6129489;23;20482;-91
2021/06/24 04:08:14;;;;;;;5.03;4.07;;;17.60;99.90;;;;;;6131728;23;20445;-91
2021/06/24 04:10:41;;;;;;;3.93;3.53;;;17.70;99.90;;;;;;6142221;23;20397;-89
2021/06/24 04:13:13;;;;;;;4.97;4.57;;;17.80;99.90;;;;;;6134992;23;20458;-91
2021/06/24 04:15:41;;;;;;;4.97;4.57;;;17.90;99.90;;;;;;6127466;23;20412;-89
2021/06/24 04:18:14;;;;;;;5.10;4.60;;;18.00;99.90;;;;;;6129618;23;20420;-90
2021/06/24 04:20:48;;;;;;;5.70;4.63;;;18.10;99.90;;;;;;6128077;23;20403;-89
2021/06/24 04:23:23;;;;;;;5.40;4.90;;;18.20;99.90;;;;;;6128199;23;20437;-90
2021/06/24 04:25:50;;;;;;;6.93;4.97;;;18.20;99.90;;;;;;6126618;23;20813;-90
2021/06/24 04:29:33;;;;;;;4.60;4.20;;;18.20;99.90;;;;;;6125918;23;20894;-89
2021/06/24 04:32:14;;;;;;;5.70;4.50;;;18.20;99.90;;;;;;6012791;23;20416;-90
2021/06/24 04:38:09;;;;;;;5.70;5.20;;;18.40;99.90;;;;;;6039296;23;20399;-89
2021/06/24 04:40:41;;;;;;;5.10;4.60;;;18.40;99.90;;;;;;6123099;23;20444;-90
2021/06/24 04:43:08;;;;;;;4.23;3.87;;;18.50;99.90;;;;;;6131255;23;20720;-89
2021/06/24 04:45:35;;;;;;;4.17;3.50;;;18.50;99.90;;;;;;6126838;23;20945;-91
2021/06/24 04:48:03;;;;;;;6.00;3.80;;;18.40;99.90;;;;;;6127458;23;20410;-90
2021/06/24 04:50:30;;;;;;;5.07;4.37;;;18.40;99.90;;;;;;6127301;23;20493;-89
2021/06/24 04:52:56;;;;;;;5.13;4.57;;;18.50;99.90;;;;;;6127196;23;20425;-89
2021/06/24 04:55:23;;;;;;;5.80;5.30;;;18.60;99.90;;;;;;6126803;23;20742;-87
2021/06/24 04:57:50;;;;;;;4.70;4.30;;;18.70;99.90;;;;;;6130752;23;20409;-88
2021/06/24 05:00:17;;;;;;;5.40;4.90;;;18.90;99.90;;;;;;6126762;23;20416;-89
2021/06/24 05:02:44;;;;;;;6.43;4.93;;;19.00;99.90;;;;;;6128801;23;20412;-86
2021/06/24 05:05:12;;;;;;;4.77;4.37;;;19.10;99.90;;;;;;6127880;23;20450;-89
2021/06/24 05:07:39;;;;;;;8.83;5.10;;;19.30;99.90;;;;;;6138350;23;20471;-90
2021/06/24 05:10:07;;;;;;;4.77;4.37;;;19.50;99.90;;;;;;6138297;23;20417;-89
2021/06/24 05:12:34;;;;;;;4.70;4.00;;;19.50;99.90;;;;;;6126405;23;20419;-88
2021/06/24 05:15:01;;;;;;;3.80;3.50;;;19.70;99.90;;;;;;6128819;23;20416;-88
2021/06/24 05:17:28;;;;;;;4.10;3.80;;;20.00;99.90;;;;;;6140873;23;20835;-88
2021/06/24 05:19:55;;;;;;;4.83;3.53;;;20.10;99.90;;;;;;6139736;23;20403;-88
2021/06/24 05:22:23;;;;;;;4.53;4.13;;;20.30;99.90;;;;;;6134401;23;20744;-88
2021/06/24 05:24:50;;;;;;;5.37;4.03;;;20.80;99.90;;;;;;6130824;23;20443;-88
2021/06/24 05:27:17;;;;;;;4.33;3.93;;;21.50;99.90;;;;;;6128500;23;20405;-89
2021/06/24 05:29:44;;;;;;;4.70;3.93;;;22.20;99.90;;;;;;6128426;23;20410;-88
2021/06/24 05:32:10;;;;;;;4.93;4.10;;;23.10;99.90;;;;;;6127308;23;20408;-88
2021/06/24 05:34:37;;;;;;;3.77;3.40;;;23.80;99.90;;;;;;6128125;23;20443;-88
2021/06/24 05:37:04;;;;;;;3.43;3.23;;;24.50;99.90;;;;;;6127130;23;20422;-88
2021/06/24 05:39:32;;;;;;;3.93;2.93;;;25.40;99.90;;;;;;6128214;23;20966;-88
2021/06/24 05:41:59;;;;;;;4.33;3.60;;;25.90;99.90;;;;;;6128234;23;20475;-89
2021/06/24 05:44:27;;;;;;;4.47;4.07;;;26.10;99.90;;;;;;6127635;23;20512;-89
2021/06/24 05:46:55;;;;;;;4.17;3.63;;;25.60;99.60;;;;;;6128806;23;20423;-89
2021/06/24 05:49:22;;;;;;;3.90;3.70;;;25.50;99.20;;;;;;6133968;23;20472;-89
2021/06/24 05:51:49;;;;;;;3.50;3.30;;;25.50;99.10;;;;;;6153293;23;20405;-87
2021/06/24 05:54:15;;;;;;;3.60;3.23;;;25.20;98.50;;;;;;6153533;23;20439;-87
2021/06/24 05:56:44;;;;;;;3.60;3.30;;;24.90;99.40;;;;;;6154617;23;20391;-87
2021/06/24 05:59:11;;;;;;;3.67;3.37;;;24.50;99.90;;;;;;6154331;23;20458;-88
2021/06/24 06:01:40;;;;;;;3.63;3.33;;;24.40;99.90;;;;;;6141247;23;20439;-89
2021/06/24 06:04:07;;;;;;;3.97;3.27;;;24.70;99.90;;;;;;6129924;23;20526;-89
2021/06/24 06:06:34;;;;;;;5.30;4.90;;;25.00;99.90;;;;;;6137155;23;20454;-89
2021/06/24 06:09:01;;;;;;;4.80;4.40;;;24.80;99.90;;;;;;6143570;23;20419;-89
2021/06/24 06:11:28;;;;;;;4.83;4.43;;;24.40;99.90;;;;;;6137295;23;20415;-89
2021/06/24 06:13:57;;;;;;;5.50;5.00;;;24.20;99.90;;;;;;6128426;23;20472;-88
2021/06/24 06:16:24;;;;;;;6.47;5.97;;;24.00;99.90;;;;;;6129622;23;20402;-89
2021/06/24 06:18:52;;;;;;;4.27;3.90;;;23.90;99.90;;;;;;6130433;23;20421;-89
2021/06/24 06:21:19;;;;;;;5.03;4.50;;;23.80;99.90;;;;;;6129620;23;20419;-89
2021/06/24 06:23:46;;;;;;;3.90;3.60;;;23.70;99.90;;;;;;6129462;23;20434;-89
2021/06/24 06:26:13;;;;;;;6.13;3.87;;;23.70;99.90;;;;;;6128789;23;20442;-88
2021/06/24 06:28:39;;;;;;;3.67;3.37;;;23.40;99.90;;;;;;6129823;23;20442;-88
2021/06/24 06:31:08;;;;;;;3.13;2.93;;;23.20;99.90;;;;;;6131615;23;20406;-88
2021/06/24 06:33:34;;;;;;;3.77;3.47;;;22.90;99.90;;;;;;6128511;23;20570;-89
2021/06/24 06:36:01;;;;;;;3.50;3.30;;;23.00;99.90;;;;;;6128611;23;20412;-88
2021/06/24 06:38:28;;;;;;;6.20;3.13;;;23.20;99.90;;;;;;6130071;23;20436;-88
2021/06/24 06:40:55;;;;;;;3.60;3.30;;;23.60;99.90;;;;;;6130113;23;20790;-89
2021/06/24 06:43:22;;;;;;;4.10;3.80;;;24.80;99.90;;;;;;6133101;23;20444;-88
2021/06/24 06:45:49;;;;;;;4.03;3.60;;;25.90;99.90;;;;;;6129811;23;20443;-88
2021/06/24 06:48:19;;;;;;;3.73;3.43;;;26.30;99.10;;;;;;6128158;23;20752;-88
2021/06/24 06:50:46;;;;;;;3.50;3.30;;;26.40;98.60;;;;;;6127932;23;20474;-89
2021/06/24 06:53:13;;;;;;;4.30;4.00;;;26.20;97.50;;;;;;6131348;23;20432;-88
2021/06/24 06:55:40;;;;;;;4.67;3.40;;;26.20;97.70;;;;;;6130380;23;20407;-88
2021/06/24 06:58:07;;;;;;;4.60;4.20;;;26.00;97.60;;;;;;6128838;23;20469;-88
2021/06/24 07:00:35;;;;;;;4.27;3.90;;;25.70;98.40;;;;;;6129977;23;20420;-88
2021/06/24 07:03:02;;;;;;;4.40;4.07;;;25.50;98.60;;;;;;6132132;23;20407;-89
2021/06/24 07:05:33;;;;;;;4.93;4.60;;;25.30;98.90;;;;;;6129515;23;20467;-89
2021/06/24 07:08:00;;;;;;;4.37;4.07;;;24.80;99.50;;;;;;6128237;23;20918;-88
2021/06/24 07:10:28;;;;;;;4.40;4.00;;;24.40;99.90;;;;;;6126976;23;20489;-88
2021/06/24 07:12:55;;;;;;;4.63;3.97;;;24.00;99.90;;;;;;6126549;23;20418;-88
2021/06/24 07:15:22;;;;;;;4.27;3.97;;;23.80;99.90;;;;;;6126332;23;20757;-89
2021/06/24 07:17:50;;;;;;;5.10;4.60;;;23.50;99.90;;;;;;6126709;23;20418;-88
2021/06/24 07:20:24;;;;;;;5.47;5.03;;;23.20;99.90;;;;;;6124529;23;20484;-88
2021/06/24 07:22:53;;;;;;;6.03;5.43;;;23.00;99.90;;;;;;6126133;23;20401;-89
2021/06/24 07:25:22;;;;;;;5.87;4.93;;;22.80;99.90;;;;;;6128068;23;20890;-88
2021/06/24 07:27:49;;;;;;;5.03;4.63;;;22.60;99.90;;;;;;6128656;23;20413;-89
2021/06/24 07:30:17;;;;;;;4.73;4.43;;;22.50;99.90;;;;;;6127102;23;20423;-90
2021/06/24 07:32:44;;;;;;;5.30;4.90;;;22.40;99.90;;;;;;6126223;23;20418;-89
2021/06/24 07:35:12;;;;;;;5.90;5.40;;;22.30;99.90;;;;;;6126850;23;20440;-90
2021/06/24 07:37:38;;;;;;;5.80;5.30;;;22.30;99.90;;;;;;6127292;23;20408;-90
2021/06/24 07:40:08;;;;;;;6.30;5.70;;;22.40;99.90;;;;;;6125858;23;20432;-90
2021/06/24 07:42:35;;;;;;;4.50;4.20;;;22.50;99.90;;;;;;6125834;23;20431;-89
2021/06/24 07:45:02;;;;;;;5.57;4.53;;;22.70;99.90;;;;;;6126592;23;20438;-90
2021/06/24 07:47:28;;;;;;;6.53;4.50;;;22.80;99.90;;;;;;6126581;23;20416;-89
2021/06/24 07:49:55;;;;;;;3.87;3.57;;;22.90;99.90;;;;;;6127085;23;20406;-88
2021/06/24 07:52:22;;;;;;;5.07;4.67;;;23.00;99.90;;;;;;6141440;23;20407;-89
2021/06/24 07:54:48;;;;;;;5.20;4.80;;;23.10;99.90;;;;;;6148656;23;20431;-89
2021/06/24 07:57:17;;;;;;;4.13;3.83;;;23.20;99.90;;;;;;6130586;23;20472;-89
2021/06/24 07:59:43;;;;;;;5.57;4.87;;;23.20;99.90;;;;;;6142036;23;20409;-89
2021/06/24 08:02:10;;;;;;;7.27;4.30;;;23.40;99.90;;;;;;6147804;23;20416;-89
2021/06/24 08:04:37;;;;;;;4.10;3.70;;;23.30;99.90;;;;;;6145111;23;20757;-89
2021/06/24 08:07:04;;;;;;;6.60;4.10;;;23.30;99.90;;;;;;6135044;23;21011;-89
2021/06/24 08:09:31;;;;;;;5.07;4.50;;;23.60;99.90;;;;;;6133194;23;20397;-89
2021/06/24 08:11:57;;;;;;;8.03;4.60;;;23.70;99.90;;;;;;6138067;23;20410;-87
2021/06/24 08:14:26;;;;;;;5.00;4.60;;;23.60;99.90;;;;;;6142362;23;20434;-89
2021/06/24 08:16:52;;;;;;;4.17;3.87;;;23.80;99.90;;;;;;6145840;23;20382;-89
2021/06/24 08:19:19;;;;;;;4.57;4.10;;;24.00;99.90;;;;;;6152235;23;20412;-90
2021/06/24 08:21:46;;;;;;;4.77;4.40;;;24.30;99.90;;;;;;6146972;23;20391;-91
2021/06/24 08:24:13;;;;;;;5.23;4.73;;;24.60;99.90;;;;;;6149026;23;20431;-91
2021/06/24 08:26:40;;;;;;;4.40;4.10;;;25.50;99.90;;;;;;6137705;23;20466;-90
2021/06/24 08:29:07;;;;;;;3.77;3.47;;;27.60;95.80;;;;;;6141562;23;20411;-91
2021/06/24 08:31:36;;;;;;;4.23;3.83;;;28.20;91.40;;;;;;6136063;23;20411;-90
2021/06/24 08:34:03;;;;;;;3.87;3.57;;;29.40;90.60;;;;;;6133636;23;20471;-89
2021/06/24 08:36:29;;;;;;;3.47;3.17;;;31.20;85.70;;;;;;6137093;23;20427;-89
2021/06/24 08:38:56;;;;;;;4.10;3.53;;;32.20;75.30;;;;;;6130154;23;20508;-91
2021/06/24 08:41:25;;;;;;;3.50;3.20;;;32.20;73.50;;;;;;6130912;23;20965;-88
2021/06/24 08:43:53;;;;;;;2.70;2.50;;;33.20;69.70;;;;;;6133129;23;20431;-89
2021/06/24 08:46:21;;;;;;;3.17;2.97;;;34.60;64.80;;;;;;6131297;23;20451;-90
2021/06/24 08:48:50;;;;;;;3.50;3.30;;;34.60;61.40;;;;;;6134912;23;20439;-90
2021/06/24 08:51:19;;;;;;;3.07;2.87;;;34.40;59.10;;;;;;6128928;23;20407;-89
2021/06/24 08:53:49;;;;;;;3.43;3.23;;;34.00;59.10;;;;;;6127660;23;20424;-89
2021/06/24 08:56:16;;;;;;;5.27;3.43;;;33.40;60.90;;;;;;6129698;23;20419;-89
2021/06/24 08:58:45;;;;;;;3.83;3.47;;;33.00;61.70;;;;;;6129138;23;20423;-90
2021/06/24 09:01:12;;;;;;;3.50;3.10;;;32.80;62.10;;;;;;6127675;23;20887;-89
2021/06/24 09:03:39;;;;;;;3.57;3.30;;;32.50;61.90;;;;;;6127543;23;20415;-90
2021/06/24 09:06:09;;;;;;;3.30;3.03;;;32.20;63.40;;;;;;6127446;23;20479;-89
2021/06/24 09:08:43;;;;;;;3.70;3.13;;;34.00;61.10;;;;;;6128944;23;20744;-88
2021/06/24 09:11:15;;;;;;;3.30;3.00;;;35.60;56.80;;;;;;6128067;23;20391;-88
2021/06/24 09:13:43;;;;;;;3.67;3.37;;;34.90;55.80;;;;;;6128108;23;20441;-88
2021/06/24 09:16:22;;;;;;;3.77;3.50;;;32.90;59.10;;;;;;6127159;23;20403;-89
2021/06/24 09:18:50;;;;;;;5.50;5.10;;;30.50;63.00;;;;;;6129963;23;20726;-89
2021/06/24 09:21:23;;;;;;;3.70;3.27;;;28.80;69.40;;;;;;6129200;23;20450;-88
2021/06/24 09:23:51;;;;;;;4.00;3.70;;;27.60;75.00;;;;;;6126727;23;20450;-89
2021/06/24 09:26:18;;;;;;;5.07;4.57;;;26.70;79.80;;;;;;6126690;23;20444;-88
2021/06/24 09:28:48;;;;;;;4.23;3.93;;;25.60;84.60;;;;;;6134963;23;20407;-89
2021/06/24 09:31:22;;;;;;;4.87;4.47;;;24.70;89.80;;;;;;6146780;23;20926;-91
2021/06/24 09:33:49;;;;;;;5.50;4.57;;;24.50;91.30;;;;;;6136063;23;20427;-88
2021/06/24 09:36:32;;;;;;;4.33;4.00;;;24.30;91.30;;;;;;6129429;23;20407;-88
2021/06/24 09:38:59;;;;;;;4.20;3.90;;;24.00;92.40;;;;;;6128365;23;20450;-88
2021/06/24 09:41:26;;;;;;;3.93;3.63;;;23.90;93.20;;;;;;6130343;23;20407;-88
2021/06/24 09:43:54;;;;;;;4.67;4.03;;;23.90;93.80;;;;;;6127167;23;20430;-88
2021/06/24 09:46:23;;;;;;;4.03;3.73;;;24.10;93.50;;;;;;6127341;23;20444;-88
2021/06/24 09:48:52;;;;;;;3.87;3.47;;;24.00;93.60;;;;;;6127977;23;20412;-89
2021/06/24 09:51:20;;;;;;;5.43;4.20;;;24.20;94.20;;;;;;6130745;23;20415;-88
2021/06/24 09:53:54;;;;;;;3.90;3.60;;;24.30;94.00;;;;;;6131026;23;20929;-89
2021/06/24 09:56:25;;;;;;;4.70;4.20;;;24.60;93.60;;;;;;6135725;23;20696;-88
2021/06/24 09:58:52;;;;;;;3.57;3.37;;;25.00;92.60;;;;;;6144525;23;20419;-89
2021/06/24 10:01:32;;;;;;;3.93;3.67;;;25.20;91.70;;;;;;6138256;23;20416;-89
2021/06/24 10:04:00;;;;;;;5.00;3.70;;;25.70;91.80;;;;;;6135177;23;20427;-88
2021/06/24 10:06:28;;;;;;;4.00;3.40;;;26.70;89.10;;;;;;6143025;23;20440;-88
2021/06/24 10:08:57;;;;;;;4.33;3.90;;;27.90;84.20;;;;;;6148610;23;20405;-89
2021/06/24 10:11:26;;;;;;;5.77;5.37;;;30.60;76.80;;;;;;6131001;23;20934;-87
2021/06/24 10:13:53;;;;;;;4.03;3.63;;;31.40;70.10;;;;;;6130542;23;20434;-89
2021/06/24 10:16:20;;;;;;;3.87;3.57;;;31.70;67.70;;;;;;6130550;23;20404;-90
2021/06/24 10:18:49;;;;;;;5.20;4.10;;;32.10;65.50;;;;;;6130174;23;20407;-88
2021/06/24 10:21:16;;;;;;;3.53;3.23;;;32.50;64.70;;;;;;6131210;23;20416;-88
2021/06/24 10:23:51;;;;;;;3.70;3.20;;;31.70;65.60;;;;;;6131114;23;20438;-88
2021/06/24 10:26:20;;;;;;;3.33;3.13;;;32.70;59.90;;;;;;6130534;23;20427;-88
2021/06/24 10:28:47;;;;;;;2.97;2.77;;;32.80;60.00;;;;;;6131357;23;20724;-89
2021/06/24 10:31:36;;;;;;;3.23;2.90;;;31.20;62.40;;;;;;6135944;23;20415;-88
2021/06/24 10:34:04;;;;;;;3.20;2.90;;;29.80;65.90;;;;;;6120496;23;20439;-88
2021/06/24 10:36:31;;;;;;;3.70;3.33;;;28.50;72.20;;;;;;6128263;23;20483;-88
2021/06/24 10:38:58;;;;;;;3.93;3.03;;;28.00;72.80;;;;;;6127575;23;20462;-88
2021/06/24 10:41:26;;;;;;;2.77;2.57;;;27.70;74.00;;;;;;6139212;23;20596;-89
2021/06/24 10:43:54;;;;;;;3.43;3.10;;;27.80;75.30;;;;;;6153354;23;20439;-90
2021/06/24 10:46:24;;;;;;;3.50;3.20;;;28.80;74.90;;;;;;6146949;23;20467;-89
2021/06/24 10:48:51;;;;;;;4.13;3.17;;;29.50;68.50;;;;;;6151014;23;20396;-88
2021/06/24 10:51:19;;;;;;;2.20;2.00;;;29.50;69.20;;;;;;6134190;23;20470;-88
2021/06/24 10:53:47;;;;;;;3.00;2.80;;;29.10;69.50;;;;;;6132149;23;20786;-88
2021/06/24 10:56:47;;;;;;;2.70;2.47;;;28.70;70.40;;;;;;6133450;23;20388;-89
2021/06/24 10:59:32;;;;;;;2.43;2.10;;;28.10;72.40;;;;;;6111700;23;20424;-88
2021/06/24 11:02:12;;;;;;;1.60;1.50;;;27.70;72.80;;;;;;6135646;23;20389;-88
2021/06/24 11:04:41;;;;;;;2.80;2.60;;;27.30;73.40;;;;;;6129046;23;20424;-90
2021/06/24 11:07:24;;;;;;;3.07;2.10;;;27.20;72.70;;;;;;6140038;23;20474;-89
2021/06/24 11:10:12;;;;;;;1.87;1.60;;;27.00;74.40;;;;;;6129196;23;20408;-88
2021/06/24 11:12:51;;;;;;;1.77;1.67;;;28.20;71.60;;;;;;6132625;23;20408;-89
2021/06/24 11:15:45;;;;;;;3.10;2.80;;;29.70;65.90;;;;;;6131803;23;20441;-89
2021/06/24 11:18:42;;;;;;;2.50;2.30;;;31.50;64.40;;;;;;6133138;23;20408;-89
2021/06/24 11:21:11;;;;;;;3.30;1.77;;;31.20;59.70;;;;;;6123049;23;20440;-89
2021/06/24 11:23:46;;;;;;;2.17;1.97;;;30.10;63.60;;;;;;6125889;23;20972;-89
2021/06/24 11:26:15;;;;;;;1.97;1.77;;;29.20;65.20;;;;;;6125935;23;20397;-89
2021/06/24 11:28:46;;;;;;;3.43;2.00;;;28.90;67.00;;;;;;6129714;23;20411;-89
2021/06/24 11:34:03;;;;;;;1.60;1.50;;;30.80;65.70;;;;;;6125825;23;20446;-90
2021/06/24 11:36:30;;;;;;;1.80;1.70;;;31.30;63.90;;;;;;6133293;23;20415;-89
2021/06/24 11:38:57;;;;;;;2.90;2.70;;;32.50;59.90;;;;;;6128741;23;20751;-88
2021/06/24 11:41:29;;;;;;;2.00;1.90;;;32.10;58.30;;;;;;6130171;23;20408;-88
2021/06/24 11:43:58;;;;;;;5.73;5.23;;;30.60;62.00;;;;;;6126000;23;20772;-89
2021/06/24 11:46:26;;;;;;;1.90;1.53;;;31.20;63.60;;;;;;6127961;23;20483;-89
2021/06/24 11:49:05;;;;;;;2.20;2.00;;;32.60;58.20;;;;;;6131688;23;20411;-89
2021/06/24 12:05:22;;;;;;;2.10;2.00;;;30.20;62.40;;;;;;6140292;23;20396;-89
2021/06/24 12:07:48;;;;;;;2.07;1.97;;;29.10;64.40;;;;;;6143171;23;20500;-89
2021/06/24 12:10:22;;;;;;;2.60;2.10;;;28.40;67.90;;;;;;6152963;23;20406;-89
2021/06/24 12:12:48;;;;;;;2.30;2.10;;;27.90;68.90;;;;;;6143071;23;20392;-89
2021/06/24 12:15:17;;;;;;;2.43;1.93;;;27.40;70.70;;;;;;6130579;23;20432;-89
2021/06/24 12:17:44;;;;;;;1.93;1.80;;;26.80;71.40;;;;;;6129525;23;20400;-89
2021/06/24 12:20:15;;;;;;;2.80;1.77;;;26.10;73.50;;;;;;6129806;23;20411;-90
2021/06/24 12:22:46;;;;;;;4.03;2.40;;;25.80;76.00;;;;;;6130552;23;20404;-89
2021/06/24 12:25:15;;;;;;;2.30;2.10;;;25.90;77.20;;;;;;6131148;23;20423;-88
2021/06/24 12:27:43;;;;;;;2.03;1.60;;;25.50;76.20;;;;;;6134785;23;20439;-89
2021/06/24 12:30:14;;;;;;;2.30;2.10;;;25.50;76.80;;;;;;6128422;23;20990;-89
2021/06/24 12:32:49;;;;;;;4.60;2.10;;;25.60;78.10;;;;;;6129135;23;20400;-89
2021/06/24 12:35:24;;;;;;;2.00;1.90;;;25.90;78.90;;;;;;6127252;23;20777;-88
2021/06/24 12:37:52;;;;;;;3.67;2.10;;;26.20;76.20;;;;;;6127878;23;20387;-88
2021/06/24 12:40:21;;;;;;;1.80;1.70;;;26.30;74.80;;;;;;6126909;23;20931;-89
2021/06/24 12:42:50;;;;;;;3.43;1.80;;;26.10;73.10;;;;;;6128624;23;20918;-89
2021/06/24 12:45:18;;;;;;;1.77;1.40;;;26.10;73.80;;;;;;6131077;23;20463;-88
2021/06/24 12:47:48;;;;;;;2.87;1.17;;;26.10;75.70;;;;;;6127917;23;20442;-89
2021/06/24 12:50:21;;;;;;;1.80;1.30;;;26.60;70.60;;;;;;6128089;23;20902;-88
2021/06/24 12:52:53;;;;;;;1.53;1.20;;;27.60;68.80;;;;;;6128063;23;20414;-89
2021/06/24 12:55:41;;;;;;;1.47;1.30;;;30.40;62.10;;;;;;6128686;23;20395;-89
2021/06/24 12:58:10;;;;;;;2.30;1.70;;;31.30;56.50;;;;;;6127991;23;20379;-89
2021/06/24 13:00:38;;;;;;;1.90;1.40;;;31.30;55.30;;;;;;6129366;23;20415;-91
2021/06/24 13:03:07;;;;;;;2.87;1.40;;;32.30;54.40;;;;;;6133665;23;20411;-93
2021/06/24 13:05:34;;;;;;;1.33;1.23;;;33.00;53.80;;;;;;6131280;23;20399;-93
2021/06/24 13:08:05;;;;;;;1.63;1.20;;;32.60;52.90;;;;;;6145527;23;20431;-92
2021/06/24 13:10:44;;;;;;;2.43;1.70;;;32.50;51.30;;;;;;6147572;23;20451;-92
2021/06/24 13:13:27;;;;;;;1.10;0.97;;;31.30;52.00;;;;;;6136320;23;20413;-91
2021/06/24 13:15:53;;;;;;;1.47;1.37;;;30.50;54.40;;;;;;6144931;23;20418;-90